Integrity — WDF4881 — position and weather

sailwx.info

Track history (hours):
 
Tides and Currents Weather Stations Pressure Air Temp Water Temp Dewpoint Dewpoint Depression Visibility Wind Speed Wind Dir Waves Ship Positions

Integrity

Owner: Canal Barge Company, Inc., Belle Chasse, LA. More information available from US FCC via Universal Licensing System and Coast Guard Vessel Documentation Center.

Last reported at 2015-May-02 11:30 UTC. Time now 2015-May-04 22:08 UTC.
Position N 29°22' W 094°53'.

Length 19 m; draft 2.8 m.

Type: Towing. MMSI: 367456830.

Date/timePositionNaut miles runAvg speedWind from/ knotsBaromVisibWave heightAir tempDewpointWater temp
2015-May-02 11:30N 29°22' W 094°53'4 0.2
2015-May-01 18:06N 29°21' W 094°49'0 0.0
2015-May-01 17:33N 29°21' W 094°49'0 0.0
2015-May-01 16:32N 29°21' W 094°49'0 0.0
2015-May-01 13:31N 29°21' W 094°49'0 0.0
2015-May-01 12:05N 29°21' W 094°49'0 0.0
2015-May-01 10:30N 29°21' W 094°49'0 0.0
2015-May-01 01:29N 29°21' W 094°49'3 2.2
2015-May-01 00:18N 29°24' W 094°49'5 7.3
2015-Apr-30 23:33N 29°29' W 094°51'7 6.6
2015-Apr-30 22:33N 29°34' W 094°55'6 6.5
2015-Apr-30 21:33N 29°40' W 094°59'5 4.5
2015-Apr-30 20:33N 29°44' W 095°01'0 0.0
2015-Apr-30 19:27N 29°44' W 095°01'0 0.0
2015-Apr-30 18:30N 29°44' W 095°01'0 0.0
2015-Apr-30 16:27N 29°44' W 095°01'0 0.0
2015-Apr-30 15:14N 29°44' W 095°01'0 0.0
2015-Apr-30 13:17N 29°44' W 095°01'0 0.0
2015-Apr-30 12:33N 29°44' W 095°01'0 0.0
2015-Apr-30 11:32N 29°44' W 095°01'0 0.0
2015-Apr-30 10:33N 29°44' W 095°01'0 0.0
2015-Apr-30 09:33N 29°44' W 095°01'0 0.0
2015-Apr-30 08:31N 29°44' W 095°01'0 0.0
2015-Apr-30 07:33N 29°44' W 095°01'0 0.0
2015-Apr-30 06:32N 29°44' W 095°01'0 0.0
2015-Apr-30 05:23N 29°44' W 095°01'0 0.0
2015-Apr-30 04:33N 29°44' W 095°01'0 0.0
2015-Apr-30 03:31N 29°44' W 095°01'0 0.1
2015-Apr-30 02:33N 29°44' W 095°01'0 0.0
2015-Apr-30 01:33N 29°44' W 095°01'0 0.0
2015-Apr-30 00:33N 29°44' W 095°01'0 0.0
2015-Apr-29 23:33N 29°44' W 095°01'0 0.0
2015-Apr-29 22:33N 29°44' W 095°01'0 0.0
2015-Apr-29 21:33N 29°44' W 095°01'0 0.0
2015-Apr-29 20:33N 29°44' W 095°01'0 0.0
2015-Apr-29 19:33N 29°44' W 095°01'0 0.0
2015-Apr-29 18:33N 29°44' W 095°01'0 0.1
2015-Apr-29 17:33N 29°44' W 095°01'3 3.4
2015-Apr-29 16:33N 29°46' W 095°05'2 1.9
2015-Apr-29 15:33N 29°47' W 095°04'2 2.4
2015-Apr-29 14:33N 29°46' W 095°06'0 0.0
2015-Apr-29 13:26N 29°46' W 095°06'0 0.0
2015-Apr-29 12:18N 29°46' W 095°06'0 0.0
2015-Apr-29 11:31N 29°46' W 095°06'0 0.0
2015-Apr-29 10:31N 29°46' W 095°06'0 0.0
2015-Apr-29 09:32N 29°46' W 095°06'0 0.0
2015-Apr-29 08:33N 29°46' W 095°06'0 0.0
2015-Apr-29 07:32N 29°46' W 095°06'0 0.0
2015-Apr-29 06:33N 29°46' W 095°06'0 0.0
2015-Apr-29 05:33N 29°46' W 095°06'0 0.0
2015-Apr-29 04:33N 29°46' W 095°06'0 0.0
2015-Apr-29 03:33N 29°46' W 095°06'0 0.0
2015-Apr-29 02:33N 29°46' W 095°06'0 0.0
2015-Apr-29 01:33N 29°46' W 095°06'0 0.0
2015-Apr-29 00:33N 29°46' W 095°06'0 0.0
2015-Apr-28 23:33N 29°46' W 095°06'0 0.0
2015-Apr-28 22:33N 29°46' W 095°06'0 0.0
2015-Apr-28 21:33N 29°46' W 095°06'0 0.0
2015-Apr-28 20:33N 29°46' W 095°06'0 0.0
2015-Apr-28 19:33N 29°46' W 095°06'0 0.0
2015-Apr-28 18:33N 29°46' W 095°06'0 0.0
2015-Apr-28 17:33N 29°46' W 095°06'0 0.0
2015-Apr-28 16:33N 29°46' W 095°06'0 0.0
2015-Apr-28 15:33N 29°46' W 095°06'0 0.0
2015-Apr-28 14:33N 29°46' W 095°06'0 0.0
2015-Apr-28 13:33N 29°46' W 095°06'0 0.0
2015-Apr-28 12:33N 29°46' W 095°06'0 0.0
2015-Apr-28 11:33N 29°46' W 095°06'0 0.0
2015-Apr-28 10:33N 29°46' W 095°06'0 0.0
2015-Apr-28 09:33N 29°46' W 095°06'0 0.0
2015-Apr-28 08:33N 29°46' W 095°06'0 0.0
2015-Apr-28 07:32N 29°46' W 095°06'0 0.0
2015-Apr-28 06:33N 29°46' W 095°06'0 0.0
2015-Apr-28 05:33N 29°46' W 095°06'0 0.0
2015-Apr-28 04:33N 29°46' W 095°06'0 0.0
2015-Apr-28 03:33N 29°46' W 095°06'0 0.0
2015-Apr-28 02:33N 29°46' W 095°06'0 0.0
2015-Apr-28 01:33N 29°46' W 095°06'0 0.0
2015-Apr-28 00:33N 29°46' W 095°06'0 0.0
2015-Apr-27 23:34N 29°46' W 095°06'0 0.0
2015-Apr-27 22:33N 29°46' W 095°06'0 0.0
2015-Apr-27 21:33N 29°46' W 095°06'0 0.0
2015-Apr-27 20:33N 29°46' W 095°06'0 0.0
2015-Apr-27 19:32N 29°46' W 095°06'0 0.0
2015-Apr-27 18:33N 29°46' W 095°06'0 0.0
2015-Apr-27 17:33N 29°46' W 095°06'0 0.0
2015-Apr-27 16:25N 29°46' W 095°06'0 0.0
2015-Apr-27 15:33N 29°46' W 095°06'0 0.0
2015-Apr-27 14:33N 29°46' W 095°06'0 0.0
2015-Apr-27 13:33N 29°46' W 095°06'0 0.0
2015-Apr-27 12:33N 29°46' W 095°06'0 0.0
2015-Apr-27 11:33N 29°46' W 095°06'0 0.0
2015-Apr-27 10:33N 29°46' W 095°06'0 0.0
2015-Apr-27 09:28N 29°46' W 095°06'0 0.0
2015-Apr-27 08:29N 29°46' W 095°06'0 0.0
2015-Apr-27 07:33N 29°46' W 095°06'0 0.0
2015-Apr-27 06:25N 29°46' W 095°06'0 0.0
2015-Apr-27 05:33N 29°46' W 095°06'0 0.0
2015-Apr-27 04:33N 29°46' W 095°06'0 0.0
2015-Apr-27 03:33N 29°46' W 095°06'0 0.0
2015-Apr-27 00:23N 29°46' W 095°06'0 0.0
2015-Apr-26 23:33N 29°46' W 095°06'0 0.0
2015-Apr-26 22:29N 29°46' W 095°06'0 0.0
2015-Apr-26 21:32N 29°46' W 095°06'0 0.0
2015-Apr-26 20:31N 29°46' W 095°06'0 0.0
2015-Apr-26 19:17N 29°46' W 095°06'0 0.0
2015-Apr-26 18:27N 29°46' W 095°06'0 0.0
2015-Apr-26 17:33N 29°46' W 095°06'0 0.0
2015-Apr-26 16:33N 29°46' W 095°06'0 0.0
2015-Apr-26 15:32N 29°46' W 095°06'0 0.0
2015-Apr-26 14:33N 29°46' W 095°06'0 0.0
2015-Apr-26 13:28N 29°46' W 095°06'0 0.0
2015-Apr-26 12:33N 29°46' W 095°06'0 0.0
2015-Apr-26 11:30N 29°46' W 095°06'0 0.0
2015-Apr-26 10:33N 29°46' W 095°06'0 0.0
2015-Apr-26 09:16N 29°46' W 095°06'0 0.0
2015-Apr-26 08:27N 29°46' W 095°06'0 0.0
2015-Apr-26 07:32N 29°46' W 095°06'0 0.0
2015-Apr-26 06:33N 29°46' W 095°06'0 0.0
2015-Apr-26 05:26N 29°46' W 095°06'0 0.0
2015-Apr-26 04:31N 29°46' W 095°06'0 0.0
2015-Apr-26 03:33N 29°46' W 095°06'0 0.0
2015-Apr-26 02:33N 29°46' W 095°06'0 0.0
2015-Apr-26 01:33N 29°46' W 095°06'0 0.0
2015-Apr-26 00:31N 29°46' W 095°06'0 0.0
2015-Apr-25 23:33N 29°46' W 095°06'0 0.0
2015-Apr-25 22:33N 29°46' W 095°06'0 0.0
2015-Apr-25 21:33N 29°46' W 095°06'0 0.0
2015-Apr-25 20:33N 29°46' W 095°06'0 0.0
2015-Apr-25 19:29N 29°46' W 095°06'0 0.0
2015-Apr-25 18:33N 29°46' W 095°06'0 0.0
2015-Apr-25 17:31N 29°46' W 095°06'0 0.0
2015-Apr-25 16:33N 29°46' W 095°06'0 0.0
2015-Apr-25 15:33N 29°46' W 095°06'0 0.0
2015-Apr-25 14:33N 29°46' W 095°06'0 0.0
2015-Apr-25 13:32N 29°46' W 095°06'0 0.0
2015-Apr-25 12:33N 29°46' W 095°06'0 0.0
2015-Apr-25 11:33N 29°46' W 095°06'0 0.0
2015-Apr-25 10:33N 29°46' W 095°06'0 0.0
2015-Apr-25 09:32N 29°46' W 095°06'0 0.0
2015-Apr-25 08:33N 29°46' W 095°06'0 0.0
2015-Apr-25 07:33N 29°46' W 095°06'0 0.0
2015-Apr-25 06:32N 29°46' W 095°06'0 0.0
2015-Apr-25 05:33N 29°46' W 095°06'0 0.0
2015-Apr-25 04:31N 29°46' W 095°06'0 0.0
2015-Apr-25 03:33N 29°46' W 095°06'0 0.0
2015-Apr-25 02:33N 29°46' W 095°06'0 0.0
2015-Apr-25 01:33N 29°46' W 095°06'0 0.0
2015-Apr-25 00:32N 29°46' W 095°06'0 0.0
2015-Apr-24 23:33N 29°46' W 095°06'0 0.0
2015-Apr-24 22:33N 29°46' W 095°06'0 0.0
2015-Apr-24 21:31N 29°46' W 095°06'0 0.0
2015-Apr-24 20:31N 29°46' W 095°06'0 0.0
2015-Apr-24 19:31N 29°46' W 095°06'0 0.0
2015-Apr-24 18:20N 29°46' W 095°06'0 0.0
2015-Apr-24 17:33N 29°46' W 095°06'0 0.0
2015-Apr-24 16:33N 29°46' W 095°06'0 0.0
2015-Apr-24 15:29N 29°46' W 095°06'0 0.0
2015-Apr-24 14:33N 29°46' W 095°06'0 0.0
2015-Apr-24 13:33N 29°46' W 095°06'0 0.0
2015-Apr-24 12:32N 29°46' W 095°06'0 0.0
2015-Apr-24 11:33N 29°46' W 095°06'0 0.0
2015-Apr-24 10:32N 29°46' W 095°06'0 0.0
2015-Apr-24 09:33N 29°46' W 095°06'0 0.0
2015-Apr-24 08:32N 29°46' W 095°06'0 0.0
2015-Apr-24 07:32N 29°46' W 095°06'0 0.0
2015-Apr-24 06:33N 29°46' W 095°06'0 0.0
2015-Apr-24 05:32N 29°46' W 095°06'0 0.0
2015-Apr-24 04:33N 29°46' W 095°06'0 0.0
2015-Apr-24 03:33N 29°46' W 095°06'0 0.0
2015-Apr-24 02:33N 29°46' W 095°06'0 0.0
2015-Apr-24 01:33N 29°46' W 095°06'0 0.0
2015-Apr-24 00:33N 29°46' W 095°06'0 0.0
2015-Apr-23 23:14N 29°46' W 095°06'0 0.0
2015-Apr-23 22:30N 29°46' W 095°06'0 0.0
2015-Apr-23 21:28N 29°46' W 095°06'0 0.0
2015-Apr-23 20:33N 29°46' W 095°06'0 0.0
2015-Apr-23 19:32N 29°46' W 095°06'0 0.0
2015-Apr-23 18:33N 29°46' W 095°06'0 0.0
2015-Apr-23 17:33N 29°46' W 095°06'0 0.0
2015-Apr-23 16:33N 29°46' W 095°06'0 0.0
2015-Apr-23 15:33N 29°46' W 095°06'0 0.0
2015-Apr-23 14:32N 29°46' W 095°06'0 0.0
2015-Apr-23 13:32N 29°46' W 095°06'0 0.0
2015-Apr-23 12:33N 29°46' W 095°06'0 0.0
2015-Apr-23 11:28N 29°46' W 095°06'0 0.0
2015-Apr-23 10:33N 29°46' W 095°06'0 0.0
2015-Apr-23 09:33N 29°46' W 095°06'0 0.0
2015-Apr-23 08:21N 29°46' W 095°06'0 0.0
2015-Apr-23 07:33N 29°46' W 095°06'0 0.0
2015-Apr-23 06:33N 29°46' W 095°06'0 0.0
2015-Apr-23 05:33N 29°46' W 095°06'0 0.0
2015-Apr-23 04:33N 29°46' W 095°06'0 0.0
2015-Apr-23 03:33N 29°46' W 095°06'0 0.0
2015-Apr-23 02:32N 29°46' W 095°06'0 0.0
2015-Apr-23 01:33N 29°46' W 095°06'0 0.0
2015-Apr-23 00:29N 29°46' W 095°06'0 0.0
2015-Apr-22 23:31N 29°46' W 095°06'0 0.0
2015-Apr-22 22:32N 29°46' W 095°06'0 0.0
2015-Apr-22 21:33N 29°46' W 095°06'0 0.0
2015-Apr-22 20:33N 29°46' W 095°06'0 0.0
2015-Apr-22 19:33N 29°46' W 095°06'0 0.0
2015-Apr-22 18:32N 29°46' W 095°06'0 0.0
2015-Apr-22 17:33N 29°46' W 095°06'0 0.0
2015-Apr-22 16:33N 29°46' W 095°06'0 0.0
2015-Apr-22 15:33N 29°46' W 095°06'0 0.0
2015-Apr-22 14:31N 29°46' W 095°06'0 0.1
2015-Apr-22 13:33N 29°46' W 095°06'1 1.1
2015-Apr-22 12:29N 29°46' W 095°05'0 0.1
2015-Apr-22 11:33N 29°46' W 095°05'  
Track history (hours):
 
Tides and Currents Weather Stations Pressure Air Temp Water Temp Dewpoint Dewpoint Depression Visibility Wind Speed Wind Dir Waves Ship Positions

Integrity

Owner: Canal Barge Company, Inc., Belle Chasse, LA. More information available from US FCC via Universal Licensing System and Coast Guard Vessel Documentation Center.

Last reported at 2015-May-02 11:30 UTC. Time now 2015-May-04 22:08 UTC.
Position N 29°22' W 094°53'.

Length 19 m; draft 2.8 m.

Type: Towing. MMSI: 367456830.

Date/timePositionNaut miles runAvg speedWind from/ knotsBaromVisibWave heightAir tempDewpointWater temp
2015-May-02 11:30N 29°22' W 094°53'4 0.2
2015-May-01 18:06N 29°21' W 094°49'0 0.0
2015-May-01 17:33N 29°21' W 094°49'0 0.0
2015-May-01 16:32N 29°21' W 094°49'0 0.0
2015-May-01 13:31N 29°21' W 094°49'0 0.0
2015-May-01 12:05N 29°21' W 094°49'0 0.0
2015-May-01 10:30N 29°21' W 094°49'0 0.0
2015-May-01 01:29N 29°21' W 094°49'3 2.2
2015-May-01 00:18N 29°24' W 094°49'5 7.3
2015-Apr-30 23:33N 29°29' W 094°51'7 6.6
2015-Apr-30 22:33N 29°34' W 094°55'6 6.5
2015-Apr-30 21:33N 29°40' W 094°59'5 4.5
2015-Apr-30 20:33N 29°44' W 095°01'0 0.0
2015-Apr-30 19:27N 29°44' W 095°01'0 0.0
2015-Apr-30 18:30N 29°44' W 095°01'0 0.0
2015-Apr-30 16:27N 29°44' W 095°01'0 0.0
2015-Apr-30 15:14N 29°44' W 095°01'0 0.0
2015-Apr-30 13:17N 29°44' W 095°01'0 0.0
2015-Apr-30 12:33N 29°44' W 095°01'0 0.0
2015-Apr-30 11:32N 29°44' W 095°01'0 0.0
2015-Apr-30 10:33N 29°44' W 095°01'0 0.0
2015-Apr-30 09:33N 29°44' W 095°01'0 0.0
2015-Apr-30 08:31N 29°44' W 095°01'0 0.0
2015-Apr-30 07:33N 29°44' W 095°01'0 0.0
2015-Apr-30 06:32N 29°44' W 095°01'0 0.0
2015-Apr-30 05:23N 29°44' W 095°01'0 0.0
2015-Apr-30 04:33N 29°44' W 095°01'0 0.0
2015-Apr-30 03:31N 29°44' W 095°01'0 0.1
2015-Apr-30 02:33N 29°44' W 095°01'0 0.0
2015-Apr-30 01:33N 29°44' W 095°01'0 0.0
2015-Apr-30 00:33N 29°44' W 095°01'0 0.0
2015-Apr-29 23:33N 29°44' W 095°01'0 0.0
2015-Apr-29 22:33N 29°44' W 095°01'0 0.0
2015-Apr-29 21:33N 29°44' W 095°01'0 0.0
2015-Apr-29 20:33N 29°44' W 095°01'0 0.0
2015-Apr-29 19:33N 29°44' W 095°01'0 0.0
2015-Apr-29 18:33N 29°44' W 095°01'0 0.1
2015-Apr-29 17:33N 29°44' W 095°01'3 3.4
2015-Apr-29 16:33N 29°46' W 095°05'2 1.9
2015-Apr-29 15:33N 29°47' W 095°04'2 2.4
2015-Apr-29 14:33N 29°46' W 095°06'0 0.0
2015-Apr-29 13:26N 29°46' W 095°06'0 0.0
2015-Apr-29 12:18N 29°46' W 095°06'0 0.0
2015-Apr-29 11:31N 29°46' W 095°06'0 0.0
2015-Apr-29 10:31N 29°46' W 095°06'0 0.0
2015-Apr-29 09:32N 29°46' W 095°06'0 0.0
2015-Apr-29 08:33N 29°46' W 095°06'0 0.0
2015-Apr-29 07:32N 29°46' W 095°06'0 0.0
2015-Apr-29 06:33N 29°46' W 095°06'0 0.0
2015-Apr-29 05:33N 29°46' W 095°06'0 0.0
2015-Apr-29 04:33N 29°46' W 095°06'0 0.0
2015-Apr-29 03:33N 29°46' W 095°06'0 0.0
2015-Apr-29 02:33N 29°46' W 095°06'0 0.0
2015-Apr-29 01:33N 29°46' W 095°06'0 0.0
2015-Apr-29 00:33N 29°46' W 095°06'0 0.0
2015-Apr-28 23:33N 29°46' W 095°06'0 0.0
2015-Apr-28 22:33N 29°46' W 095°06'0 0.0
2015-Apr-28 21:33N 29°46' W 095°06'0 0.0
2015-Apr-28 20:33N 29°46' W 095°06'0 0.0
2015-Apr-28 19:33N 29°46' W 095°06'0 0.0
2015-Apr-28 18:33N 29°46' W 095°06'0 0.0
2015-Apr-28 17:33N 29°46' W 095°06'0 0.0
2015-Apr-28 16:33N 29°46' W 095°06'0 0.0
2015-Apr-28 15:33N 29°46' W 095°06'0 0.0
2015-Apr-28 14:33N 29°46' W 095°06'0 0.0
2015-Apr-28 13:33N 29°46' W 095°06'0 0.0
2015-Apr-28 12:33N 29°46' W 095°06'0 0.0
2015-Apr-28 11:33N 29°46' W 095°06'0 0.0
2015-Apr-28 10:33N 29°46' W 095°06'0 0.0
2015-Apr-28 09:33N 29°46' W 095°06'0 0.0
2015-Apr-28 08:33N 29°46' W 095°06'0 0.0
2015-Apr-28 07:32N 29°46' W 095°06'0 0.0
2015-Apr-28 06:33N 29°46' W 095°06'0 0.0
2015-Apr-28 05:33N 29°46' W 095°06'0 0.0
2015-Apr-28 04:33N 29°46' W 095°06'0 0.0
2015-Apr-28 03:33N 29°46' W 095°06'0 0.0
2015-Apr-28 02:33N 29°46' W 095°06'0 0.0
2015-Apr-28 01:33N 29°46' W 095°06'0 0.0
2015-Apr-28 00:33N 29°46' W 095°06'0 0.0
2015-Apr-27 23:34N 29°46' W 095°06'0 0.0
2015-Apr-27 22:33N 29°46' W 095°06'0 0.0
2015-Apr-27 21:33N 29°46' W 095°06'0 0.0
2015-Apr-27 20:33N 29°46' W 095°06'0 0.0
2015-Apr-27 19:32N 29°46' W 095°06'0 0.0
2015-Apr-27 18:33N 29°46' W 095°06'0 0.0
2015-Apr-27 17:33N 29°46' W 095°06'0 0.0
2015-Apr-27 16:25N 29°46' W 095°06'0 0.0
2015-Apr-27 15:33N 29°46' W 095°06'0 0.0
2015-Apr-27 14:33N 29°46' W 095°06'0 0.0
2015-Apr-27 13:33N 29°46' W 095°06'0 0.0
2015-Apr-27 12:33N 29°46' W 095°06'0 0.0
2015-Apr-27 11:33N 29°46' W 095°06'0 0.0
2015-Apr-27 10:33N 29°46' W 095°06'0 0.0
2015-Apr-27 09:28N 29°46' W 095°06'0 0.0
2015-Apr-27 08:29N 29°46' W 095°06'0 0.0
2015-Apr-27 07:33N 29°46' W 095°06'0 0.0
2015-Apr-27 06:25N 29°46' W 095°06'0 0.0
2015-Apr-27 05:33N 29°46' W 095°06'0 0.0
2015-Apr-27 04:33N 29°46' W 095°06'0 0.0
2015-Apr-27 03:33N 29°46' W 095°06'0 0.0
2015-Apr-27 00:23N 29°46' W 095°06'0 0.0
2015-Apr-26 23:33N 29°46' W 095°06'0 0.0
2015-Apr-26 22:29N 29°46' W 095°06'0 0.0
2015-Apr-26 21:32N 29°46' W 095°06'0 0.0
2015-Apr-26 20:31N 29°46' W 095°06'0 0.0
2015-Apr-26 19:17N 29°46' W 095°06'0 0.0
2015-Apr-26 18:27N 29°46' W 095°06'0 0.0
2015-Apr-26 17:33N 29°46' W 095°06'0 0.0
2015-Apr-26 16:33N 29°46' W 095°06'0 0.0
2015-Apr-26 15:32N 29°46' W 095°06'0 0.0
2015-Apr-26 14:33N 29°46' W 095°06'0 0.0
2015-Apr-26 13:28N 29°46' W 095°06'0 0.0
2015-Apr-26 12:33N 29°46' W 095°06'0 0.0
2015-Apr-26 11:30N 29°46' W 095°06'0 0.0
2015-Apr-26 10:33N 29°46' W 095°06'0 0.0
2015-Apr-26 09:16N 29°46' W 095°06'0 0.0
2015-Apr-26 08:27N 29°46' W 095°06'0 0.0
2015-Apr-26 07:32N 29°46' W 095°06'0 0.0
2015-Apr-26 06:33N 29°46' W 095°06'0 0.0
2015-Apr-26 05:26N 29°46' W 095°06'0 0.0
2015-Apr-26 04:31N 29°46' W 095°06'0 0.0
2015-Apr-26 03:33N 29°46' W 095°06'0 0.0
2015-Apr-26 02:33N 29°46' W 095°06'0 0.0
2015-Apr-26 01:33N 29°46' W 095°06'0 0.0
2015-Apr-26 00:31N 29°46' W 095°06'0 0.0
2015-Apr-25 23:33N 29°46' W 095°06'0 0.0
2015-Apr-25 22:33N 29°46' W 095°06'0 0.0
2015-Apr-25 21:33N 29°46' W 095°06'0 0.0
2015-Apr-25 20:33N 29°46' W 095°06'0 0.0
2015-Apr-25 19:29N 29°46' W 095°06'0 0.0
2015-Apr-25 18:33N 29°46' W 095°06'0 0.0
2015-Apr-25 17:31N 29°46' W 095°06'0 0.0
2015-Apr-25 16:33N 29°46' W 095°06'0 0.0
2015-Apr-25 15:33N 29°46' W 095°06'0 0.0
2015-Apr-25 14:33N 29°46' W 095°06'0 0.0
2015-Apr-25 13:32N 29°46' W 095°06'0 0.0
2015-Apr-25 12:33N 29°46' W 095°06'0 0.0
2015-Apr-25 11:33N 29°46' W 095°06'0 0.0
2015-Apr-25 10:33N 29°46' W 095°06'0 0.0
2015-Apr-25 09:32N 29°46' W 095°06'0 0.0
2015-Apr-25 08:33N 29°46' W 095°06'0 0.0
2015-Apr-25 07:33N 29°46' W 095°06'0 0.0
2015-Apr-25 06:32N 29°46' W 095°06'0 0.0
2015-Apr-25 05:33N 29°46' W 095°06'0 0.0
2015-Apr-25 04:31N 29°46' W 095°06'0 0.0
2015-Apr-25 03:33N 29°46' W 095°06'0 0.0
2015-Apr-25 02:33N 29°46' W 095°06'0 0.0
2015-Apr-25 01:33N 29°46' W 095°06'0 0.0
2015-Apr-25 00:32N 29°46' W 095°06'0 0.0
2015-Apr-24 23:33N 29°46' W 095°06'0 0.0
2015-Apr-24 22:33N 29°46' W 095°06'0 0.0
2015-Apr-24 21:31N 29°46' W 095°06'0 0.0
2015-Apr-24 20:31N 29°46' W 095°06'0 0.0
2015-Apr-24 19:31N 29°46' W 095°06'0 0.0
2015-Apr-24 18:20N 29°46' W 095°06'0 0.0
2015-Apr-24 17:33N 29°46' W 095°06'0 0.0
2015-Apr-24 16:33N 29°46' W 095°06'0 0.0
2015-Apr-24 15:29N 29°46' W 095°06'0 0.0
2015-Apr-24 14:33N 29°46' W 095°06'0 0.0
2015-Apr-24 13:33N 29°46' W 095°06'0 0.0
2015-Apr-24 12:32N 29°46' W 095°06'0 0.0
2015-Apr-24 11:33N 29°46' W 095°06'0 0.0
2015-Apr-24 10:32N 29°46' W 095°06'0 0.0
2015-Apr-24 09:33N 29°46' W 095°06'0 0.0
2015-Apr-24 08:32N 29°46' W 095°06'0 0.0
2015-Apr-24 07:32N 29°46' W 095°06'0 0.0
2015-Apr-24 06:33N 29°46' W 095°06'0 0.0
2015-Apr-24 05:32N 29°46' W 095°06'0 0.0
2015-Apr-24 04:33N 29°46' W 095°06'0 0.0
2015-Apr-24 03:33N 29°46' W 095°06'0 0.0
2015-Apr-24 02:33N 29°46' W 095°06'0 0.0
2015-Apr-24 01:33N 29°46' W 095°06'0 0.0
2015-Apr-24 00:33N 29°46' W 095°06'0 0.0
2015-Apr-23 23:14N 29°46' W 095°06'0 0.0
2015-Apr-23 22:30N 29°46' W 095°06'0 0.0
2015-Apr-23 21:28N 29°46' W 095°06'0 0.0
2015-Apr-23 20:33N 29°46' W 095°06'0 0.0
2015-Apr-23 19:32N 29°46' W 095°06'0 0.0
2015-Apr-23 18:33N 29°46' W 095°06'0 0.0
2015-Apr-23 17:33N 29°46' W 095°06'0 0.0
2015-Apr-23 16:33N 29°46' W 095°06'0 0.0
2015-Apr-23 15:33N 29°46' W 095°06'0 0.0
2015-Apr-23 14:32N 29°46' W 095°06'0 0.0
2015-Apr-23 13:32N 29°46' W 095°06'0 0.0
2015-Apr-23 12:33N 29°46' W 095°06'0 0.0
2015-Apr-23 11:28N 29°46' W 095°06'0 0.0
2015-Apr-23 10:33N 29°46' W 095°06'0 0.0
2015-Apr-23 09:33N 29°46' W 095°06'0 0.0
2015-Apr-23 08:21N 29°46' W 095°06'0 0.0
2015-Apr-23 07:33N 29°46' W 095°06'0 0.0
2015-Apr-23 06:33N 29°46' W 095°06'0 0.0
2015-Apr-23 05:33N 29°46' W 095°06'0 0.0
2015-Apr-23 04:33N 29°46' W 095°06'0 0.0
2015-Apr-23 03:33N 29°46' W 095°06'0 0.0
2015-Apr-23 02:32N 29°46' W 095°06'0 0.0
2015-Apr-23 01:33N 29°46' W 095°06'0 0.0
2015-Apr-23 00:29N 29°46' W 095°06'0 0.0
2015-Apr-22 23:31N 29°46' W 095°06'0 0.0
2015-Apr-22 22:32N 29°46' W 095°06'0 0.0
2015-Apr-22 21:33N 29°46' W 095°06'0 0.0
2015-Apr-22 20:33N 29°46' W 095°06'0 0.0
2015-Apr-22 19:33N 29°46' W 095°06'0 0.0
2015-Apr-22 18:32N 29°46' W 095°06'0 0.0
2015-Apr-22 17:33N 29°46' W 095°06'0 0.0
2015-Apr-22 16:33N 29°46' W 095°06'0 0.0
2015-Apr-22 15:33N 29°46' W 095°06'0 0.0
2015-Apr-22 14:31N 29°46' W 095°06'0 0.1
2015-Apr-22 13:33N 29°46' W 095°06'1 1.1
2015-Apr-22 12:29N 29°46' W 095°05'0 0.1
2015-Apr-22 11:33N 29°46' W 095°05'  

Dump ship's entire track history